createdAt,value
2022-12-25T00:09:53.200Z,100078.09
2022-12-25T00:19:57.691Z,100088.50
2022-12-25T00:30:00.715Z,100093.25
2022-12-25T00:40:06.128Z,100103.78
2022-12-25T00:50:09.971Z,100114.47
2022-12-25T01:00:16.984Z,100125.16
2022-12-25T01:10:22.952Z,100135.16
2022-12-25T01:20:27.340Z,100144.81
2022-12-25T01:30:30.481Z,100153.66
2022-12-25T01:40:35.909Z,100161.41
2022-12-25T01:50:41.217Z,100170.50
2022-12-25T02:00:46.495Z,100181.00
2022-12-25T02:10:49.592Z,100191.34
2022-12-25T02:21:30.594Z,100196.09
2022-12-25T02:31:41.110Z,100204.44
2022-12-25T02:41:48.050Z,100214.56
2022-12-25T02:52:15.506Z,100221.41
2022-12-25T03:02:38.163Z,100230.50
2022-12-25T03:12:50.512Z,100236.97
2022-12-25T03:23:13.757Z,100247.16
2022-12-25T03:33:44.581Z,100257.88
2022-12-25T03:44:27.938Z,100268.22
2022-12-25T03:54:57.048Z,100275.75
2022-12-25T04:05:18.465Z,100284.38
2022-12-25T04:15:41.422Z,100294.06
2022-12-25T04:26:03.239Z,100305.84
2022-12-25T04:36:09.539Z,100315.47
2022-12-25T04:46:14.553Z,100327.81
2022-12-25T04:56:19.873Z,100339.91
2022-12-25T05:06:22.804Z,100350.75
2022-12-25T05:16:27.510Z,100363.44
2022-12-25T05:26:30.793Z,100376.81
2022-12-25T05:36:35.612Z,100387.88
2022-12-25T05:46:38.655Z,100400.44
2022-12-25T05:56:46.520Z,100414.94
2022-12-25T06:06:49.450Z,100427.97
2022-12-25T06:16:55.030Z,100439.25
2022-12-25T06:27:06.934Z,100453.06
2022-12-25T06:37:11.580Z,100462.50
2022-12-25T06:47:14.569Z,100476.19
2022-12-25T06:57:20.021Z,100488.97
2022-12-25T07:07:24.365Z,100502.31
2022-12-25T07:17:29.895Z,100513.78
2022-12-25T07:27:33.819Z,100524.72
2022-12-25T07:37:39.928Z,100534.44
2022-12-25T07:47:44.232Z,100546.88
2022-12-25T07:57:49.488Z,100558.00
2022-12-25T08:07:57.370Z,100570.84
2022-12-25T08:18:03.651Z,100581.97
2022-12-25T08:28:06.999Z,100592.50
2022-12-25T08:38:11.923Z,100604.03
2022-12-25T08:48:15.377Z,100614.22
2022-12-25T08:58:20.471Z,100627.00
2022-12-25T09:08:24.405Z,100638.06
2022-12-25T09:18:29.816Z,100641.50
2022-12-25T09:28:35.083Z,100654.78
2022-12-25T09:38:40.170Z,100664.84
2022-12-25T09:48:49.130Z,100678.16
2022-12-25T09:58:55.222Z,100690.03
2022-12-25T10:09:18.282Z,100702.16
2022-12-25T10:19:41.252Z,100715.28
2022-12-25T10:29:47.209Z,100727.53
2022-12-25T10:39:53.164Z,100740.94
2022-12-25T10:49:57.472Z,100755.16
2022-12-25T11:00:08.745Z,100768.38
2022-12-25T11:10:22.349Z,100779.03
2022-12-25T11:20:28.340Z,100791.41
2022-12-25T11:30:34.956Z,100805.94
2022-12-25T11:40:47.955Z,100820.09
2022-12-25T11:50:55.962Z,100831.34
2022-12-25T12:01:05.937Z,100844.47
2022-12-25T12:11:19.764Z,100855.81
2022-12-25T12:21:26.997Z,100864.91
2022-12-25T12:31:40.915Z,100879.84
2022-12-25T12:41:48.540Z,100890.19
2022-12-25T12:52:03.240Z,100901.50
2022-12-25T13:02:35.642Z,100917.41
2022-12-25T13:12:39.751Z,100930.50
2022-12-25T13:22:52.399Z,100942.56
2022-12-25T13:32:57.718Z,100957.69
2022-12-25T13:43:03.330Z,100973.69
2022-12-25T13:53:13.482Z,100989.25
2022-12-25T14:03:20.517Z,101001.94
2022-12-25T14:13:29.970Z,101017.41
2022-12-25T14:23:42.245Z,101031.91
2022-12-25T14:33:45.509Z,101043.31
2022-12-25T14:43:55.276Z,101057.00
2022-12-25T14:54:02.022Z,101071.00
2022-12-25T15:04:15.819Z,101083.81
2022-12-25T15:14:20.938Z,101096.06
2022-12-25T15:24:26.652Z,101110.16
2022-12-25T15:34:31.071Z,101123.91
2022-12-25T15:44:36.996Z,101137.09
2022-12-25T15:54:40.965Z,101150.00
2022-12-25T16:04:53.858Z,101163.06
2022-12-25T16:15:00.501Z,101172.38
2022-12-25T16:25:14.521Z,101171.25
2022-12-25T16:35:18.970Z,101181.81
2022-12-25T16:45:24.592Z,101191.09
2022-12-25T16:55:30.352Z,101202.75
2022-12-25T17:05:37.559Z,101214.25
2022-12-25T17:15:46.655Z,101222.88
2022-12-25T17:26:01.304Z,101230.16
2022-12-25T17:36:08.781Z,101239.03
2022-12-25T17:46:16.763Z,101250.03
2022-12-25T17:56:24.209Z,101260.72
2022-12-25T18:17:34.956Z,101272.03
2022-12-25T18:27:50.145Z,101282.97
2022-12-25T18:37:55.787Z,101288.81
2022-12-25T18:48:03.634Z,101297.84
2022-12-25T18:58:11.289Z,101302.25
2022-12-25T19:08:17.579Z,101311.19
2022-12-25T19:18:24.836Z,101316.16
2022-12-25T19:28:30.513Z,101322.59
2022-12-25T19:38:34.370Z,101332.03
2022-12-25T19:48:38.988Z,101338.66
2022-12-25T19:58:42.057Z,101344.78
2022-12-25T20:08:49.026Z,101351.13
2022-12-25T20:18:53.827Z,101361.78
2022-12-25T20:29:01.753Z,101372.84
2022-12-25T20:39:07.160Z,101384.66
2022-12-25T20:49:13.149Z,101396.06
2022-12-25T20:59:16.175Z,101406.28
2022-12-25T21:09:21.215Z,101413.94
2022-12-25T21:19:41.264Z,101424.50
2022-12-25T21:29:45.703Z,101435.06
2022-12-25T21:39:50.599Z,101443.94
2022-12-25T21:50:13.647Z,101453.34
2022-12-25T22:00:17.910Z,101463.06
2022-12-25T22:10:22.487Z,101472.25
2022-12-25T22:20:26.982Z,101481.00
2022-12-25T22:30:32.170Z,101487.59
2022-12-25T22:40:38.064Z,101494.22
2022-12-25T22:50:42.637Z,101500.06
2022-12-25T23:00:46.545Z,101507.72
2022-12-25T23:10:52.267Z,101514.56
2022-12-25T23:21:18.837Z,101516.16
2022-12-25T23:31:25.879Z,101524.84
2022-12-25T23:41:29.026Z,101533.00
2022-12-25T23:51:35.279Z,101541.50
